Latest Weather Observations for Narrandera Airport

IDN60801

Issued at 2:32 am EDT Wednesday 19 February 2020 (issued every 10 minutes, with the page automatically refreshed every 10 minutes)

About weather observations | Map of weather stations | Latest weather observations for NSW | Other Formats
Station Details ID: 074148 Name: NARRANDERA AIRPORT AWS Lat: -34.70 Lon: 146.51 Height: 145.0 m
Data from the previous 72 hours. | See also: Recent months at Narrandera Airport
Date/Time
EDT
Temp
°C
App
Temp
°C
Dew
Point
°C
Rel
Hum
%
Delta-T
°C
Wind Press
QNH
hPa
Press
MSL
hPa
Rain since
9am
mm
Dir  Spd
km/h
Gust
km/h
Spd
kts
Gust
kts
19/02:30am 18.6 15.0 9.7 56 4.8 WSW 19 28 10 15 1007.6 1006.8 0.0
19/02:00am 19.0 15.1 9.5 54 5.1 WSW 20 30 11 16 1007.5 1006.7 0.0
19/01:30am 19.6 15.6 8.9 50 5.6 WSW 20 33 11 18 1007.5 1006.7 0.0
19/01:00am 20.0 16.2 9.0 49 5.8 WSW 19 33 10 18 1007.3 1006.5 0.0
19/12:30am 20.7 16.3 9.0 47 6.2 WSW 22 35 12 19 1007.3 1006.5 0.0
19/12:00am 21.5 17.0 8.7 44 6.8 WSW 22 37 12 20 1007.2 1006.4 0.0
 
Date/Time
EDT
Temp
°C
App
Temp
°C
Dew
Point
°C
Rel
Hum
%
Delta-T
°C
Wind Press
QNH
hPa
Press
MSL
hPa
Rain since
9am
mm
Dir  Spd
km/h
Gust
km/h
Spd
kts
Gust
kts
18/11:30pm 22.5 17.6 8.6 41 7.4 WSW 24 33 13 18 1007.1 1006.3 0.0
18/11:00pm 23.0 17.6 7.9 38 8.0 WSW 26 35 14 19 1007.1 1006.3 0.0
18/10:30pm 23.4 18.5 7.1 35 8.5 W 22 32 12 17 1006.9 1006.1 0.0
18/10:00pm 23.9 18.6 6.7 33 9.0 W 24 37 13 20 1006.8 1006.0 0.0
18/09:30pm 24.6 18.5 6.4 31 9.5 WSW 28 39 15 21 1006.3 1005.5 0.0
18/09:00pm 25.2 20.1 5.9 29 10.0 WSW 22 35 12 19 1005.8 1005.0 0.0
18/08:30pm 26.2 19.4 5.2 26 10.8 WSW 30 48 16 26 1005.1 1004.4 0.0
18/08:13pm 26.5 20.3 6.0 27 10.7 WSW 28 46 15 25 1004.9 1004.2 0.0
18/08:00pm 27.0 20.2 5.3 25 11.3 WSW 30 46 16 25 1004.6 1003.9 0.0
18/07:30pm 28.2 21.7 4.5 22 12.2 WSW 28 46 15 25 1004.1 1003.3 0.0
18/07:00pm 29.7 22.6 3.6 19 13.4 WSW 30 48 16 26 1003.6 1002.8 0.0
18/06:36pm 29.2 22.6 4.0 20 12.9 WSW 28 48 15 26 1003.4 1002.6 0.0
18/06:30pm 29.5 23.0 4.9 21 12.8 WSW 28 43 15 23 1003.4 1002.6 0.0
18/06:15pm 30.4 23.7 5.6 21 13.1 WSW 30 48 16 26 1003.2 1002.4 0.0
18/06:00pm 30.0 23.5 6.6 23 12.6 WSW 30 46 16 25 1003.1 1002.3 0.0
18/05:30pm 31.0 25.2 9.3 26 12.3 W 30 50 16 27 1002.6 1001.8 0.0
18/05:00pm 32.1 25.9 10.2 26 12.7 WSW 33 54 18 29 1002.4 1001.6 0.0
18/04:43pm 32.9 26.0 9.0 23 13.6 W 35 56 19 30 1002.3 1001.5 0.0
18/04:30pm 34.3 28.0 7.4 19 15.0 WNW 30 41 16 22 1002.0 1001.2 0.0
18/04:11pm 34.3 27.6 8.1 20 14.8 NW 33 57 18 31 1002.1 1001.3 0.0
18/04:00pm 34.6 28.2 8.4 20 14.9 NW 32 39 17 21 1002.3 1001.5 0.0
18/03:30pm 35.7 29.3 9.3 20 15.2 NW 33 48 18 26 1002.9 1002.1 0.0
18/03:00pm 34.6 29.1 9.1 21 14.7 WNW 28 41 15 22 1003.7 1002.9 0.0
18/02:45pm 34.5 28.6 7.5 19 15.1 NW 28 46 15 25 1003.9 1003.1 0.0
18/02:30pm 34.5 28.2 7.5 19 15.1 NW 30 46 16 25 1004.2 1003.4 0.0
18/02:24pm 34.8 29.0 7.8 19 15.2 NW 28 46 15 25 1004.3 1003.5 0.0
18/02:00pm 33.5 30.1 11.4 26 13.1 NW 20 32 11 17 1004.5 1003.8 0.0
18/01:30pm 32.9 31.0 15.8 35 10.8 N 20 28 11 15 1005.1 1004.4 0.0
18/01:00pm 30.8 29.2 14.0 36 10.2 NNW 15 24 8 13 1005.8 1005.0 0.0
18/12:30pm 30.3 29.6 16.3 42 8.8 NNW 15 20 8 11 1006.2 1005.4 0.0
18/12:00pm 29.2 28.0 17.4 49 7.5 NNW 20 26 11 14 1006.8 1006.0 0.0
18/11:30am 29.3 28.0 17.2 48 7.7 NNW 20 26 11 14 1007.1 1006.3 0.0
18/11:00am 29.5 28.2 17.3 47 7.8 N 20 26 11 14 1007.3 1006.5 0.0
18/10:30am 29.6 28.5 17.8 49 7.6 N 20 28 11 15 1007.3 1006.5 0.0
18/10:00am 28.8 28.3 19.1 55 6.3 N 20 28 11 15 1007.4 1006.6 0.0
18/09:30am 27.7 27.4 19.5 61 5.3 N 20 26 11 14 1007.7 1006.9 0.0
18/09:00am 26.7 26.1 19.8 66 4.5 NNE 22 30 12 16 1007.5 1006.7 0.0
18/08:30am 25.0 27.0 20.0 74 3.3 NNE 9 13 5 7 1007.4 1006.6 0.0
18/08:00am 21.7 25.2 19.6 88 1.3 CALM 0 0 0 0 1007.3 1006.5 0.0
18/07:30am 21.0 22.5 18.8 87 1.4 ESE 9 11 5 6 1007.1 1006.3 0.0
18/07:00am 19.6 20.5 16.6 83 1.8 E 7 11 4 6 1007.0 1006.2 0.0
18/06:30am 17.7 17.9 14.8 83 1.7 E 7 11 4 6 1007.2 1006.4 0.0
18/06:00am 18.1 18.7 15.2 83 1.7 NE 6 7 3 4 1007.5 1006.7 0.0
18/05:30am 18.1 19.6 14.6 80 2.0 CALM 0 2 0 1 1007.5 1006.7 0.0
18/05:00am 18.3 19.9 15.0 81 1.9 CALM 0 0 0 0 1007.6 1006.8 0.0
18/04:30am 18.9 20.6 15.2 79 2.2 CALM 0 0 0 0 1007.4 1006.6 0.0
18/04:00am 19.4 20.7 14.2 72 3.0 CALM 0 0 0 0 1007.4 1006.6 0.0
18/03:30am 20.0 20.9 15.2 74 2.8 SSE 4 6 2 3 1007.6 1006.8 0.0
18/03:00am 20.3 21.9 14.9 71 3.2 CALM 0 0 0 0 1007.7 1006.9 0.0
18/02:30am 21.1 22.5 14.5 66 3.9 CALM 0 0 0 0 1008.1 1007.3 0.0
18/02:00am 21.3 20.7 14.5 65 4.0 N 11 15 6 8 1008.4 1007.6 0.0
18/01:30am 21.0 23.0 16.0 73 3.0 CALM 0 0 0 0 1008.2 1007.4 0.0
18/01:00am 21.3 23.1 15.6 70 3.4 CALM 0 0 0 0 1008.3 1007.5 0.0
18/12:30am 21.8 23.6 15.6 68 3.7 CALM 0 0 0 0 1008.4 1007.6 0.0
18/12:00am 22.2 24.0 15.5 66 4.0 CALM 0 0 0 0 1008.2 1007.4 0.0
 
Date/Time
EDT
Temp
°C
App
Temp
°C
Dew
Point
°C
Rel
Hum
%
Delta-T
°C
Wind Press
QNH
hPa
Press
MSL
hPa
Rain since
9am
mm
Dir  Spd
km/h
Gust
km/h
Spd
kts
Gust
kts
17/11:30pm 22.9 24.5 15.0 61 4.7 CALM 0 0 0 0 1008.2 1007.4 0.0
17/11:00pm 23.9 26.0 16.2 62 4.7 CALM 0 0 0 0 1008.4 1007.6 0.0
17/10:30pm 24.8 27.0 16.5 60 5.1 CALM 0 0 0 0 1008.4 1007.6 0.0
17/10:00pm 25.9 27.6 15.3 52 6.5 CALM 0 4 0 2 1008.5 1007.7 0.0
17/09:30pm 26.5 28.8 16.7 55 6.1 CALM 0 0 0 0 1008.3 1007.5 0.0
17/09:00pm 28.5 29.4 14.0 41 8.7 SW 2 7 1 4 1008.1 1007.3 0.0
17/08:30pm 30.7 30.2 12.6 33 10.8 SW 7 11 4 6 1007.9 1007.1 0.0
17/08:00pm 31.1 31.4 15.1 38 9.9 SW 7 13 4 7 1007.4 1006.6 0.0
17/07:30pm 33.0 33.3 15.0 33 11.2 SW 7 11 4 6 1007.0 1006.2 0.0
17/07:00pm 34.0 33.2 14.0 30 12.3 WSW 11 15 6 8 1006.8 1006.0 0.0
17/06:30pm 34.6 33.8 14.0 29 12.7 WSW 11 15 6 8 1006.6 1005.8 0.0
17/06:00pm 34.7 33.7 13.5 28 13.0 WSW 11 19 6 10 1006.6 1005.8 0.0
17/05:30pm 34.6 32.2 14.5 30 12.5 W 20 28 11 15 1006.7 1005.9 0.0
17/05:00pm 34.6 34.0 14.5 30 12.5 SW 11 20 6 11 1006.9 1006.1 0.0
17/04:30pm 34.6 33.0 15.0 31 12.3 W 17 26 9 14 1007.3 1006.5 0.0
17/04:00pm 34.8 35.0 15.7 32 12.1 N 9 20 5 11 1007.6 1006.8 0.0
17/03:30pm 33.2 34.4 17.4 39 10.2 WSW 7 13 4 7 1007.9 1007.1 0.0
17/03:00pm 34.4 33.8 16.7 34 11.3 NW 15 28 8 15 1008.3 1007.5 0.0
17/02:30pm 33.7 34.3 18.6 40 9.9 NW 13 28 7 15 1008.8 1008.0 0.0
17/02:00pm 32.9 33.0 17.5 39 9.9 NW 13 20 7 11 1009.1 1008.3 0.0
17/01:30pm 32.1 32.7 17.6 42 9.3 NW 11 20 6 11 1009.5 1008.7 0.0
17/01:00pm 31.7 32.0 17.9 43 8.9 NW 13 20 7 11 1009.9 1009.1 0.0
17/12:30pm 31.5 32.6 18.8 46 8.3 N 11 20 6 11 1010.3 1009.5 0.0
17/12:00pm 30.4 30.9 17.5 46 8.3 NNE 11 17 6 9 1010.7 1010.0 0.0
17/11:30am 29.2 29.0 17.7 50 7.3 N 15 24 8 13 1011.2 1010.5 0.0
17/11:00am 28.1 26.9 17.0 51 7.0 NE 19 24 10 13 1011.4 1010.7 0.0
17/10:30am 27.5 26.3 17.1 53 6.5 NE 19 26 10 14 1011.6 1010.9 0.0
17/10:00am 26.3 25.1 17.4 58 5.6 ENE 20 28 11 15 1011.7 1011.0 0.0
17/09:30am 25.1 23.4 17.1 61 5.0 ENE 22 28 12 15 1011.9 1011.2 0.0
17/09:00am 23.9 22.3 16.4 63 4.6 ENE 20 32 11 17 1012.1 1011.4 0.0
17/08:30am 23.1 21.0 16.2 65 4.2 ENE 22 35 12 19 1012.0 1011.3 0.0
17/08:00am 22.3 20.5 16.1 68 3.8 ENE 20 28 11 15 1011.8 1011.1 0.0
17/07:30am 21.8 19.7 16.1 70 3.5 ENE 22 32 12 17 1011.5 1010.8 0.0
17/07:00am 21.5 19.9 16.0 71 3.3 ENE 19 28 10 15 1011.5 1010.8 0.0
17/06:30am 21.6 20.4 16.1 71 3.3 E 17 26 9 14 1011.3 1010.6 0.0
17/06:00am 21.7 20.1 16.0 70 3.5 E 19 24 10 13 1011.1 1010.4 0.0
17/05:30am 21.9 20.7 16.2 70 3.5 E 17 22 9 12 1011.0 1010.3 0.0
17/05:00am 22.0 21.2 16.1 69 3.6 E 15 24 8 13 1011.0 1010.3 0.0
17/04:30am 22.2 20.7 16.2 69 3.7 E 19 24 10 13 1010.8 1010.1 0.0
17/04:00am 22.2 20.7 16.2 69 3.7 E 19 28 10 15 1010.7 1010.0 0.0
17/03:30am 22.4 21.2 16.2 68 3.8 ENE 17 26 9 14 1010.7 1010.0 0.0
17/03:00am 22.5 21.3 16.1 67 3.9 E 17 28 9 15 1010.9 1010.2 0.0
17/02:30am 22.6 21.4 16.2 67 3.9 E 17 24 9 13 1011.0 1010.3 0.0
17/02:00am 22.7 20.1 16.0 66 4.1 E 24 32 13 17 1011.0 1010.3 0.0
17/01:30am 23.2 20.6 16.0 64 4.4 E 24 37 13 20 1011.2 1010.5 0.0
17/01:00am 23.8 21.7 16.1 62 4.7 E 22 30 12 16 1011.4 1010.7 0.0
17/12:30am 24.5 22.9 16.5 61 4.9 E 20 32 11 17 1011.3 1010.6 0.0
17/12:00am 25.4 23.4 16.5 58 5.5 E 22 32 12 17 1011.3 1010.6 0.0
 
Date/Time
EDT
Temp
°C
App
Temp
°C
Dew
Point
°C
Rel
Hum
%
Delta-T
°C
Wind Press
QNH
hPa
Press
MSL
hPa
Rain since
9am
mm
Dir  Spd
km/h
Gust
km/h
Spd
kts
Gust
kts
16/11:30pm 26.0 23.6 16.5 55 5.9 E 24 35 13 19 1011.2 1010.5 0.0
16/11:00pm 26.0 25.8 17.6 60 5.3 E 15 26 8 14 1011.2 1010.5 0.0
16/10:30pm 24.0 26.5 19.1 74 3.1 ESE 4 13 2 7 1010.9 1010.2 0.0
16/10:00pm 24.7 27.9 18.9 70 3.7 CALM 0 0 0 0 1010.6 1009.9 0.0
16/09:30pm 24.9 26.7 18.8 69 3.9 SSE 7 11 4 6 1010.4 1009.6 0.0
16/09:00pm 26.5 29.5 18.4 61 5.2 CALM 0 0 0 0 1010.0 1009.2 0.0
16/08:30pm 27.3 29.2 18.9 60 5.4 SSW 7 7 4 4 1009.8 1009.0 0.0
16/08:00pm 29.2 30.0 16.4 46 8.0 S 7 9 4 5 1009.5 1008.7 0.0
16/07:30pm 30.6 31.3 16.2 41 9.0 S 7 9 4 5 1009.1 1008.3 0.0
16/07:00pm 31.0 31.2 15.8 40 9.5 SSW 9 11 5 6 1009.0 1008.2 0.0
16/06:30pm 32.4 32.1 14.5 33 11.0 SSW 9 13 5 7 1008.9 1008.1 0.0
16/06:00pm 32.6 32.2 14.2 32 11.3 S 9 15 5 8 1008.9 1008.1 0.0
16/05:30pm 31.8 31.9 14.4 34 10.7 S 7 15 4 8 1009.0 1008.2 0.0
16/05:00pm 32.0 32.2 14.6 34 10.7 SSW 7 13 4 7 1009.2 1008.4 0.0
16/04:30pm 32.6 33.2 16.8 38 10.1 SW 9 15 5 8 1009.3 1008.5 0.0
16/04:00pm 30.9 30.8 16.1 41 9.3 SW 11 13 6 7 1009.6 1008.8 0.0
16/03:30pm 31.4 30.9 15.0 37 10.1 SW 11 17 6 9 1009.8 1009.0 0.0
16/03:00pm 31.4 31.5 16.6 41 9.4 SSW 11 19 6 10 1010.1 1009.3 0.0
16/02:30pm 32.3 32.4 14.4 33 11.0 NW 7 20 4 11 1010.4 1009.6 0.0
16/02:00pm 32.1 32.1 15.1 35 10.6 N 9 17 5 9 1010.5 1009.7 0.0
16/01:30pm 30.4 31.3 16.0 41 9.0 SE 6 11 3 6 1010.8 1010.1 0.0
16/01:00pm 30.3 31.4 15.6 41 9.1 SE 4 9 2 5 1011.0 1010.3 0.0
16/12:30pm 30.3 31.0 17.0 44 8.4 ENE 9 17 5 9 1011.3 1010.6 0.0
16/12:00pm 29.5 30.2 18.9 53 6.9 NE 13 19 7 10 1011.8 1011.1 0.0
16/11:30am 28.2 28.4 18.6 56 6.2 NE 15 22 8 12 1012.2 1011.5 0.0
16/11:00am 26.8 26.3 17.8 57 5.7 NE 17 22 9 12 1012.5 1011.7 0.0
16/10:30am 25.6 25.6 18.0 63 4.8 ENE 15 22 8 12 1012.5 1011.7 0.0
16/10:00am 24.5 25.2 18.0 67 4.1 ENE 11 15 6 8 1012.6 1011.8 0.0
16/09:30am 23.0 24.8 17.5 71 3.4 ESE 4 7 2 4 1012.2 1011.5 0.0
16/09:00am 21.4 23.0 17.0 76 2.7 SSW 4 7 2 4 1012.1 1011.4 0.0
16/08:30am 20.4 21.5 16.6 79 2.3 S 6 7 3 4 1012.0 1011.3 0.0
16/08:00am 19.5 20.9 16.5 83 1.8 SSE 4 6 2 3 1011.5 1010.8 0.0
16/07:30am 18.8 20.9 17.1 90 1.0 SSW 2 7 1 4 1011.1 1010.4 0.0
16/07:00am 18.1 20.0 16.8 92 0.8 SW 2 6 1 3 1010.7 1010.0 0.0
16/06:30am 18.2 19.4 16.9 92 0.8 WSW 6 9 3 5 1010.3 1009.5 0.0
16/06:00am 18.4 19.7 17.1 92 0.8 WSW 6 7 3 4 1010.1 1009.3 0.0
16/05:30am 18.6 20.7 17.3 92 0.8 WSW 2 9 1 5 1009.7 1008.9 0.0
16/05:00am 18.7 21.2 17.2 91 0.9 CALM 0 0 0 0 1009.6 1008.8 0.0
16/04:30am 18.9 21.3 17.0 89 1.2 CALM 0 6 0 3 1009.4 1008.6 0.0
16/04:00am 18.8 20.4 16.8 88 1.2 SSE 4 7 2 4 1009.3 1008.5 0.0
16/03:30am 19.5 20.6 16.7 84 1.7 WSW 6 7 3 4 1009.1 1008.3 0.0
16/03:00am 19.9 20.8 16.7 82 1.9 W 7 11 4 6 1009.1 1008.3 0.0

Other formats

Comma delimited format used in spreadsheet applications
http://www.bom.gov.au/fwo/IDN60801/IDN60801.95706.axf

JavaScript Object Notation format (JSON) in row-major order
http://www.bom.gov.au/fwo/IDN60801/IDN60801.95706.json

Data quality

Most of these data are generated automatically and are frequently updated. Quality checks on data are not normally performed. It is possible for incorrect values to appear. Refer to information at About Latest Weather Observations and please check the disclaimer before using these data.